SBPA/POA METAR and TAF weather

Enter ICAO airport designator
Station Type Date Time Source
SBPA METAR 2020/01/18 13:00 UTC NOAA

SBPA 181300Z 07006KT 040V130 CAVOK 25/15 Q1019


Station Type Date Time Source
SBPA Decoded METAR 2020/01/18 13:00 UTC NOAA

Porto Alegre Aero-Porto , Brazil (SBPA) 30-00S 051-11W 3M
Jan 18, 2020 - 08:00 AM EST / 2020.01.18 1300 UTC
Wind: from the ENE (070 degrees) at 7 MPH (6 KT) (direction variable):0
Visibility: greater than 7 mile(s):0
Temperature: 77 F (25 C)
Dew Point: 59 F (15 C)
Relative Humidity: 53%
Pressure (altimeter): 30.09 in. Hg (1019 hPa)
ob: SBPA 181300Z 07006KT 040V130 CAVOK 25/15 Q1019
cycle: 13

Station Type Date Time Source
SBPA TAF 2020/01/18 12:45 UTC NOAA

TAF SBPA 180830Z 1812/1912 09006KT CAVOK TX29/1818Z TN21/1908Z
BECMG 1812/1814 11012KT 9999 SCT035
BECMG 1821/1823 07006KT CAVOK
RMK PEL

Example: see airport list